createdAt,value
2022-09-17T00:03:39.673Z,12.64
2022-09-17T00:08:41.899Z,12.53
2022-09-17T00:13:44.326Z,12.54
2022-09-17T00:18:45.568Z,12.66
2022-09-17T00:23:47.081Z,12.67
2022-09-17T00:28:53.017Z,12.66
2022-09-17T00:33:55.024Z,12.53
2022-09-17T00:38:58.822Z,12.43
2022-09-17T00:44:21.931Z,12.36
2022-09-17T00:49:28.482Z,12.29
2022-09-17T00:54:29.857Z,12.17
2022-09-17T00:59:31.373Z,12.13
2022-09-17T01:04:32.672Z,12.11
2022-09-17T01:09:53.339Z,12.14
2022-09-17T01:15:12.057Z,12.01
2022-09-17T01:20:19.256Z,12.24
2022-09-17T01:25:53.395Z,12.31
2022-09-17T01:31:25.513Z,12.30
2022-09-17T01:37:02.278Z,12.38
2022-09-17T01:42:17.598Z,12.22
2022-09-17T01:47:27.638Z,12.26
2022-09-17T01:52:33.771Z,12.54
2022-09-17T01:57:45.278Z,12.59
2022-09-17T02:02:53.609Z,12.40
2022-09-17T02:08:04.601Z,12.32
2022-09-17T02:13:21.654Z,12.36
2022-09-17T02:18:29.335Z,12.33
2022-09-17T02:23:36.677Z,12.33
2022-09-17T02:28:41.876Z,12.34
2022-09-17T02:33:48.071Z,12.49
2022-09-17T02:38:58.362Z,12.27
2022-09-17T02:44:13.161Z,12.29
2022-09-17T02:49:32.362Z,12.30
2022-09-17T02:54:55.867Z,12.33
2022-09-17T03:00:22.273Z,12.39
2022-09-17T03:05:25.710Z,12.43
2022-09-17T03:10:33.331Z,12.54
2022-09-17T03:15:34.590Z,12.43
2022-09-17T03:20:35.933Z,12.49
2022-09-17T03:25:37.428Z,12.59
2022-09-17T03:30:38.692Z,12.38
2022-09-17T03:35:44.003Z,12.31
2022-09-17T03:40:45.308Z,12.44
2022-09-17T03:45:47.529Z,12.26
2022-09-17T03:50:49.041Z,12.33
2022-09-17T03:55:50.404Z,12.30
2022-09-17T04:00:57.558Z,12.14
2022-09-17T04:05:59.622Z,12.12
2022-09-17T04:11:00.881Z,12.09
2022-09-17T04:16:03.098Z,12.03
2022-09-17T04:21:04.574Z,12.09
2022-09-17T04:26:06.128Z,12.03
2022-09-17T04:31:07.553Z,12.05
2022-09-17T04:36:08.978Z,11.82
2022-09-17T04:41:10.362Z,12.09
2022-09-17T04:46:11.797Z,12.06
2022-09-17T04:51:13.217Z,12.22
2022-09-17T04:56:14.468Z,12.23
2022-09-17T05:01:18.559Z,12.24
2022-09-17T05:06:19.902Z,12.22
2022-09-17T05:11:21.253Z,12.35
2022-09-17T05:16:22.625Z,12.21
2022-09-17T05:21:24.301Z,12.17
2022-09-17T05:26:25.561Z,12.26
2022-09-17T05:31:26.892Z,12.36
2022-09-17T05:36:28.148Z,12.33
2022-09-17T05:41:29.379Z,12.24
2022-09-17T05:46:30.915Z,12.30
2022-09-17T05:51:32.162Z,12.36
2022-09-17T05:56:33.690Z,12.52
2022-09-17T06:01:34.993Z,12.49
2022-09-17T06:06:37.728Z,12.49
2022-09-17T06:11:39.230Z,12.55
2022-09-17T06:16:40.501Z,12.63
2022-09-17T06:21:41.864Z,12.75
2022-09-17T06:26:43.129Z,12.64
2022-09-17T06:31:44.861Z,12.80
2022-09-17T06:36:46.349Z,12.93
2022-09-17T06:41:47.793Z,13.04
2022-09-17T06:46:51.062Z,13.25
2022-09-17T06:51:52.721Z,13.40
2022-09-17T06:56:54.041Z,13.40
2022-09-17T07:01:55.800Z,13.59
2022-09-17T07:06:57.183Z,13.78
2022-09-17T07:11:58.627Z,13.97
2022-09-17T07:16:59.959Z,13.92
2022-09-17T07:22:01.248Z,13.46
2022-09-17T07:27:02.638Z,13.55
2022-09-17T07:32:03.958Z,13.59
2022-09-17T07:37:05.242Z,13.55
2022-09-17T07:42:06.584Z,13.84
2022-09-17T07:47:08.111Z,13.75
2022-09-17T07:52:09.491Z,13.99
2022-09-17T07:57:10.785Z,13.84
2022-09-17T08:02:14.102Z,14.15
2022-09-17T08:07:15.549Z,14.17
2022-09-17T08:12:18.305Z,14.01
2022-09-17T08:17:19.603Z,14.25
2022-09-17T08:22:21.000Z,13.95
2022-09-17T08:27:22.639Z,13.82
2022-09-17T08:32:24.619Z,13.55
2022-09-17T08:37:29.708Z,13.68
2022-09-17T08:42:39.582Z,14.54
2022-09-17T08:47:45.935Z,15.02
2022-09-17T08:53:16.042Z,15.46
2022-09-17T08:58:41.026Z,15.71
2022-09-17T09:03:56.639Z,16.00
2022-09-17T09:09:03.857Z,16.36
2022-09-17T09:14:14.044Z,16.75
2022-09-17T09:19:28.062Z,17.54
2022-09-17T09:24:36.324Z,17.40
2022-09-17T09:30:04.074Z,16.66
2022-09-17T09:35:27.257Z,16.97
2022-09-17T09:40:36.182Z,18.06
2022-09-17T09:45:46.403Z,16.76
2022-09-17T09:51:06.506Z,16.25
2022-09-17T09:56:28.333Z,16.30
2022-09-17T10:01:30.209Z,16.75
2022-09-17T10:06:31.770Z,16.62
2022-09-17T10:11:33.599Z,16.21
2022-09-17T10:16:36.204Z,15.92
2022-09-17T10:21:40.199Z,15.78
2022-09-17T10:26:41.626Z,15.49
2022-09-17T10:31:54.346Z,16.03
2022-09-17T10:36:57.152Z,16.06
2022-09-17T10:42:20.865Z,16.85
2022-09-17T10:47:25.753Z,17.10
2022-09-17T10:52:31.227Z,17.67
2022-09-17T10:57:51.350Z,19.28
2022-09-17T11:03:16.320Z,19.65
2022-09-17T11:08:24.683Z,20.86
2022-09-17T11:13:36.853Z,18.69
2022-09-17T11:18:45.532Z,19.14
2022-09-17T11:24:20.775Z,24.67
2022-09-17T11:30:16.866Z,28.41
2022-09-17T11:35:25.760Z,29.20
2022-09-17T11:40:36.679Z,33.73
2022-09-17T11:45:43.381Z,27.98
2022-09-17T11:50:51.354Z,20.29
2022-09-17T11:56:02.722Z,17.81
2022-09-17T12:01:09.995Z,17.21
2022-09-17T12:06:28.608Z,18.37
2022-09-17T12:11:58.912Z,22.95
2022-09-17T12:17:03.238Z,31.34
2022-09-17T12:22:12.159Z,27.73
2022-09-17T12:27:39.561Z,31.52
2022-09-17T12:33:02.911Z,33.96
2022-09-17T12:38:14.294Z,34.86
2022-09-17T12:43:20.829Z,35.79
2022-09-17T12:49:07.466Z,38.54
2022-09-17T12:54:17.827Z,35.22
2022-09-17T12:59:20.649Z,36.85
2022-09-17T13:05:01.077Z,30.91
2022-09-17T13:10:23.253Z,32.50
2022-09-17T13:15:33.757Z,30.83
2022-09-17T13:20:40.229Z,31.52
2022-09-17T13:25:53.089Z,29.25
2022-09-17T13:31:00.499Z,27.01
2022-09-17T13:36:03.940Z,24.65
2022-09-17T13:41:20.231Z,23.42
2022-09-17T13:46:24.149Z,23.28
2022-09-17T13:51:34.369Z,22.63
2022-09-17T13:56:41.257Z,21.18
2022-09-17T14:01:48.700Z,19.78
2022-09-17T14:06:53.299Z,19.57
2022-09-17T14:11:54.594Z,18.59
2022-09-17T14:16:55.889Z,17.83
2022-09-17T14:22:00.908Z,17.23
2022-09-17T14:27:14.353Z,16.98
2022-09-17T14:32:32.190Z,16.96
2022-09-17T14:37:41.997Z,17.01
2022-09-17T14:42:44.033Z,15.74
2022-09-17T14:47:45.442Z,15.85
2022-09-17T14:52:51.354Z,16.21
2022-09-17T14:57:56.418Z,16.77
2022-09-17T15:03:00.841Z,16.59
2022-09-17T15:08:11.254Z,16.95
2022-09-17T15:13:17.016Z,16.50
2022-09-17T15:18:18.559Z,16.14
2022-09-17T15:23:26.401Z,16.34
2022-09-17T15:28:33.954Z,16.25
2022-09-17T15:33:35.391Z,16.20
2022-09-17T15:38:38.994Z,16.08
2022-09-17T15:43:41.229Z,15.88
2022-09-17T15:48:42.477Z,15.71
2022-09-17T15:53:52.378Z,15.77
2022-09-17T15:59:00.584Z,15.44
2022-09-17T16:04:08.921Z,14.81
2022-09-17T16:09:46.746Z,14.88
2022-09-17T16:14:52.348Z,14.67
2022-09-17T16:19:55.706Z,14.65
2022-09-17T16:24:57.156Z,14.71
2022-09-17T16:30:05.024Z,14.80
2022-09-17T16:35:06.750Z,14.71
2022-09-17T16:40:12.700Z,14.53
2022-09-17T16:45:16.277Z,14.76
2022-09-17T16:50:18.254Z,14.43
2022-09-17T16:55:20.336Z,14.34
2022-09-17T17:00:22.482Z,14.19
2022-09-17T17:05:25.868Z,14.01
2022-09-17T17:10:27.132Z,13.73
2022-09-17T17:15:28.391Z,13.53
2022-09-17T17:20:31.878Z,13.67
2022-09-17T17:25:33.222Z,13.47
2022-09-17T17:30:35.213Z,13.64
2022-09-17T17:35:39.078Z,13.41
2022-09-17T17:40:40.451Z,13.31
2022-09-17T17:45:41.772Z,13.60
2022-09-17T17:50:43.072Z,13.52
2022-09-17T17:55:44.357Z,13.14
2022-09-17T18:00:45.611Z,13.34
2022-09-17T18:05:47.086Z,13.37
2022-09-17T18:10:56.110Z,13.33
2022-09-17T18:15:59.504Z,13.21
2022-09-17T18:21:06.901Z,13.15
2022-09-17T18:26:11.981Z,13.13
2022-09-17T18:31:33.606Z,13.20
2022-09-17T18:36:36.611Z,13.09
2022-09-17T18:41:40.222Z,13.01
2022-09-17T18:46:42.534Z,13.05
2022-09-17T18:51:43.984Z,13.06
2022-09-17T18:56:45.245Z,13.14
2022-09-17T19:01:46.724Z,13.12
2022-09-17T19:06:48.025Z,13.03
2022-09-17T19:11:49.382Z,13.15
2022-09-17T19:16:50.638Z,13.07
2022-09-17T19:21:51.937Z,13.08
2022-09-17T19:26:53.478Z,13.18
2022-09-17T19:31:54.769Z,13.18
2022-09-17T19:36:56.038Z,13.26
2022-09-17T19:41:57.505Z,12.99
2022-09-17T19:46:58.901Z,12.92
2022-09-17T19:52:00.360Z,13.01
2022-09-17T19:57:01.609Z,12.81
2022-09-17T20:02:04.181Z,12.72
2022-09-17T20:07:05.516Z,12.78
2022-09-17T20:12:07.030Z,12.76
2022-09-17T20:17:08.677Z,12.78
2022-09-17T20:22:09.908Z,12.82
2022-09-17T20:27:11.198Z,12.87
2022-09-17T20:32:12.782Z,12.84
2022-09-17T20:37:14.119Z,12.73
2022-09-17T20:42:15.829Z,12.67
2022-09-17T20:47:17.109Z,12.45
2022-09-17T20:52:21.154Z,12.37
2022-09-17T20:57:22.594Z,12.48
2022-09-17T21:02:25.297Z,12.37
2022-09-17T21:07:27.091Z,12.31
2022-09-17T21:12:28.385Z,12.02
2022-09-17T21:17:31.664Z,12.06
2022-09-17T21:22:32.910Z,12.05
2022-09-17T21:27:34.221Z,12.02
2022-09-17T21:32:38.985Z,12.21
2022-09-17T21:37:40.257Z,12.26
2022-09-17T21:42:41.596Z,12.30
2022-09-17T21:47:43.070Z,12.24
2022-09-17T21:52:44.326Z,12.10
2022-09-17T21:57:45.575Z,12.01
2022-09-17T22:02:46.998Z,12.15
2022-09-17T22:07:48.388Z,12.33
2022-09-17T22:12:49.658Z,12.28
2022-09-17T22:17:50.932Z,12.32
2022-09-17T22:22:53.271Z,12.45
2022-09-17T22:28:19.455Z,12.29
2022-09-17T22:33:15.762Z,12.25
2022-09-17T22:38:17.078Z,12.34
2022-09-17T22:43:18.345Z,12.32
2022-09-17T22:48:19.627Z,12.38
2022-09-17T22:53:20.925Z,12.34
2022-09-17T22:58:24.227Z,12.24
2022-09-17T23:03:26.542Z,12.26
2022-09-17T23:08:28.805Z,12.27
2022-09-17T23:13:30.154Z,12.28
2022-09-17T23:18:32.354Z,12.31
2022-09-17T23:23:35.439Z,12.43
2022-09-17T23:28:37.689Z,12.35
2022-09-17T23:33:39.219Z,12.21
2022-09-17T23:38:42.464Z,12.09
2022-09-17T23:43:46.365Z,12.17
2022-09-17T23:48:48.754Z,12.12
2022-09-17T23:53:50.730Z,12.12
2022-09-17T23:58:54.177Z,12.03
